Other Surface Observations
Issued by NWS Great Falls, MT

Home | Current Version | Previous Version | Text Only | Print | Product List | Glossary On
Versions: 1 2 3 4 5 6 7 8 9 10 11 12 13 14 15 16 17 18 19 20 21 22 23 24 25 26 27 28 29 30 31 32 33 34 35 36 37 38 39 40 41 42 43 44 45 46 47 48 49 50
014
SXUS55 KTFX 270129
OSOTFX
AREA AWOS OBSERVATIONS
NATIONAL WEATHER SERVICE GREAT FALLS MT
0729 PM MDT FRI MAY 26 2017

METAR KPWD 270130Z AUTO 30013KT 10SM 16/03 A2980 RMK PLENTYWOOD
METAR KPO1 270130Z AUTO 32012KT 10SM 18/01 A2983 RMK POPLAR
METAR K1S3 270130Z AUTO 25006KT 10SM 18/M01 A2989 RMK FORSYTH
METAR KS71 270130Z AUTO 03004KT 9SM 17/03 A2990 RMK CHINOOK
METAR K79S 270115Z AUTO 00000KT 10SM 20/M01 A2990 RMK FORT BENTON
METAR K38S 270130Z AUTO 04006KT 10SM 14/01 A2999 RMK DEER LODGE
METAR K3U3 270130Z AUTO 13005KT 10SM 13/01 A2999 RMK ANACONDA
METAR K6S5 270130Z AUTO 34008KT 10SM 17/03 A2996 RMK HAMILTON
METAR K88M 270130Z AUTO 00000KT 10SM 21/04 A2991 RMK EUREKA



USA.gov is the U.S. government's official web portal to all federal, state and local government web resources and services.